sensor_id;sensor_type;location;lat;lon;timestamp;P1;durP1;ratioP1;P2;durP2;ratioP2
37641;SDS011;23486;51.956;5.888;2022-11-14T00:01:58;35.10;;;20.40;;
37641;SDS011;23486;51.956;5.888;2022-11-14T00:04:30;37.38;;;20.67;;
37641;SDS011;23486;51.956;5.888;2022-11-14T00:06:55;33.25;;;20.40;;
37641;SDS011;23486;51.956;5.888;2022-11-14T00:09:24;39.95;;;21.23;;
37641;SDS011;23486;51.956;5.888;2022-11-14T00:11:51;33.80;;;22.23;;
37641;SDS011;23486;51.956;5.888;2022-11-14T00:14:17;39.75;;;23.98;;
37641;SDS011;23486;51.956;5.888;2022-11-14T00:16:42;36.33;;;21.77;;
37641;SDS011;23486;51.956;5.888;2022-11-14T00:19:11;38.33;;;22.73;;
37641;SDS011;23486;51.956;5.888;2022-11-14T00:21:39;39.33;;;22.88;;
37641;SDS011;23486;51.956;5.888;2022-11-14T00:24:04;37.50;;;23.05;;
37641;SDS011;23486;51.956;5.888;2022-11-14T00:26:30;39.45;;;23.65;;
37641;SDS011;23486;51.956;5.888;2022-11-14T00:28:55;36.85;;;21.80;;
37641;SDS011;23486;51.956;5.888;2022-11-14T00:31:21;42.60;;;24.42;;
37641;SDS011;23486;51.956;5.888;2022-11-14T00:33:47;36.00;;;21.15;;
37641;SDS011;23486;51.956;5.888;2022-11-14T00:36:13;36.03;;;21.60;;
37641;SDS011;23486;51.956;5.888;2022-11-14T00:38:39;39.83;;;25.13;;
37641;SDS011;23486;51.956;5.888;2022-11-14T00:41:04;36.15;;;22.27;;
37641;SDS011;23486;51.956;5.888;2022-11-14T00:43:30;37.22;;;22.20;;
37641;SDS011;23486;51.956;5.888;2022-11-14T00:45:56;46.83;;;25.92;;
37641;SDS011;23486;51.956;5.888;2022-11-14T00:48:22;39.13;;;22.85;;
37641;SDS011;23486;51.956;5.888;2022-11-14T00:50:47;40.78;;;24.85;;
37641;SDS011;23486;51.956;5.888;2022-11-14T00:53:13;41.65;;;24.65;;
37641;SDS011;23486;51.956;5.888;2022-11-14T00:55:39;40.83;;;24.25;;
37641;SDS011;23486;51.956;5.888;2022-11-14T00:58:05;45.22;;;26.42;;
37641;SDS011;23486;51.956;5.888;2022-11-14T01:00:31;43.70;;;24.67;;
37641;SDS011;23486;51.956;5.888;2022-11-14T01:02:59;42.67;;;25.40;;
37641;SDS011;23486;51.956;5.888;2022-11-14T01:05:25;45.05;;;25.35;;
37641;SDS011;23486;51.956;5.888;2022-11-14T01:07:54;46.65;;;26.25;;
37641;SDS011;23486;51.956;5.888;2022-11-14T01:10:19;44.22;;;25.77;;
37641;SDS011;23486;51.956;5.888;2022-11-14T01:12:45;49.67;;;25.88;;
37641;SDS011;23486;51.956;5.888;2022-11-14T01:15:12;38.25;;;22.77;;
37641;SDS011;23486;51.956;5.888;2022-11-14T01:17:37;48.90;;;27.05;;
37641;SDS011;23486;51.956;5.888;2022-11-14T01:20:03;60.25;;;33.80;;
37641;SDS011;23486;51.956;5.888;2022-11-14T01:22:30;53.92;;;29.60;;
37641;SDS011;23486;51.956;5.888;2022-11-14T01:24:55;51.15;;;28.33;;
37641;SDS011;23486;51.956;5.888;2022-11-14T01:27:24;49.50;;;27.02;;
37641;SDS011;23486;51.956;5.888;2022-11-14T01:29:50;58.47;;;33.13;;
37641;SDS011;23486;51.956;5.888;2022-11-14T01:32:16;51.35;;;28.35;;
37641;SDS011;23486;51.956;5.888;2022-11-14T01:34:41;53.00;;;29.70;;
37641;SDS011;23486;51.956;5.888;2022-11-14T01:37:07;52.97;;;29.20;;
37641;SDS011;23486;51.956;5.888;2022-11-14T01:39:33;54.58;;;30.73;;
37641;SDS011;23486;51.956;5.888;2022-11-14T01:41:58;56.78;;;31.23;;
37641;SDS011;23486;51.956;5.888;2022-11-14T01:44:37;48.72;;;28.92;;
37641;SDS011;23486;51.956;5.888;2022-11-14T01:47:03;58.80;;;32.10;;
37641;SDS011;23486;51.956;5.888;2022-11-14T01:49:34;54.38;;;28.98;;
37641;SDS011;23486;51.956;5.888;2022-11-14T01:52:07;53.28;;;28.30;;
37641;SDS011;23486;51.956;5.888;2022-11-14T01:54:38;54.00;;;28.10;;
37641;SDS011;23486;51.956;5.888;2022-11-14T01:57:07;50.35;;;27.77;;
37641;SDS011;23486;51.956;5.888;2022-11-14T01:59:37;48.53;;;26.88;;
37641;SDS011;23486;51.956;5.888;2022-11-14T02:02:08;53.97;;;27.60;;
37641;SDS011;23486;51.956;5.888;2022-11-14T02:04:40;50.35;;;28.33;;
37641;SDS011;23486;51.956;5.888;2022-11-14T02:07:08;47.47;;;26.75;;
37641;SDS011;23486;51.956;5.888;2022-11-14T02:09:36;48.53;;;26.05;;
37641;SDS011;23486;51.956;5.888;2022-11-14T02:12:07;48.10;;;24.88;;
37641;SDS011;23486;51.956;5.888;2022-11-14T02:14:42;49.80;;;27.73;;
37641;SDS011;23486;51.956;5.888;2022-11-14T02:17:09;55.55;;;28.90;;
37641;SDS011;23486;51.956;5.888;2022-11-14T02:19:40;55.60;;;28.08;;
37641;SDS011;23486;51.956;5.888;2022-11-14T02:22:11;50.58;;;26.80;;
37641;SDS011;23486;51.956;5.888;2022-11-14T02:24:37;51.13;;;27.00;;
37641;SDS011;23486;51.956;5.888;2022-11-14T02:27:03;58.08;;;29.17;;
37641;SDS011;23486;51.956;5.888;2022-11-14T02:29:30;56.42;;;29.85;;
37641;SDS011;23486;51.956;5.888;2022-11-14T02:31:59;59.58;;;29.80;;
37641;SDS011;23486;51.956;5.888;2022-11-14T02:34:28;59.28;;;28.73;;
37641;SDS011;23486;51.956;5.888;2022-11-14T02:36:54;60.47;;;29.77;;
37641;SDS011;23486;51.956;5.888;2022-11-14T02:39:20;53.63;;;28.33;;
37641;SDS011;23486;51.956;5.888;2022-11-14T02:41:46;52.22;;;25.70;;
37641;SDS011;23486;51.956;5.888;2022-11-14T02:44:13;55.72;;;27.85;;
37641;SDS011;23486;51.956;5.888;2022-11-14T02:46:39;62.45;;;31.13;;
37641;SDS011;23486;51.956;5.888;2022-11-14T02:49:05;61.42;;;31.13;;
37641;SDS011;23486;51.956;5.888;2022-11-14T02:51:30;54.75;;;29.13;;
37641;SDS011;23486;51.956;5.888;2022-11-14T02:53:56;66.20;;;32.50;;
37641;SDS011;23486;51.956;5.888;2022-11-14T02:56:21;57.20;;;30.35;;
37641;SDS011;23486;51.956;5.888;2022-11-14T02:58:47;54.08;;;27.95;;
37641;SDS011;23486;51.956;5.888;2022-11-14T03:01:12;56.60;;;27.48;;
37641;SDS011;23486;51.956;5.888;2022-11-14T03:03:38;55.22;;;28.17;;
37641;SDS011;23486;51.956;5.888;2022-11-14T03:06:03;53.35;;;25.45;;
37641;SDS011;23486;51.956;5.888;2022-11-14T03:08:29;52.22;;;29.30;;
37641;SDS011;23486;51.956;5.888;2022-11-14T03:10:55;53.38;;;28.58;;
37641;SDS011;23486;51.956;5.888;2022-11-14T03:13:28;68.80;;;32.15;;
37641;SDS011;23486;51.956;5.888;2022-11-14T03:15:56;57.97;;;29.25;;
37641;SDS011;23486;51.956;5.888;2022-11-14T03:18:22;54.67;;;27.70;;
37641;SDS011;23486;51.956;5.888;2022-11-14T03:20:48;65.80;;;32.60;;
37641;SDS011;23486;51.956;5.888;2022-11-14T03:23:13;57.40;;;30.00;;
37641;SDS011;23486;51.956;5.888;2022-11-14T03:25:39;58.78;;;30.20;;
37641;SDS011;23486;51.956;5.888;2022-11-14T03:28:04;57.17;;;27.80;;
37641;SDS011;23486;51.956;5.888;2022-11-14T03:30:30;57.90;;;27.90;;
37641;SDS011;23486;51.956;5.888;2022-11-14T03:32:56;55.50;;;27.35;;
37641;SDS011;23486;51.956;5.888;2022-11-14T03:35:22;54.80;;;26.85;;
37641;SDS011;23486;51.956;5.888;2022-11-14T03:37:48;53.45;;;26.88;;
37641;SDS011;23486;51.956;5.888;2022-11-14T03:40:13;56.75;;;26.67;;
37641;SDS011;23486;51.956;5.888;2022-11-14T03:42:39;53.50;;;27.67;;
37641;SDS011;23486;51.956;5.888;2022-11-14T03:45:04;56.72;;;28.48;;
37641;SDS011;23486;51.956;5.888;2022-11-14T03:47:30;53.45;;;27.35;;
37641;SDS011;23486;51.956;5.888;2022-11-14T03:49:56;53.70;;;26.17;;
37641;SDS011;23486;51.956;5.888;2022-11-14T03:52:21;55.03;;;26.02;;
37641;SDS011;23486;51.956;5.888;2022-11-14T03:54:47;52.75;;;25.10;;
37641;SDS011;23486;51.956;5.888;2022-11-14T03:57:14;52.88;;;24.30;;
37641;SDS011;23486;51.956;5.888;2022-11-14T03:59:39;60.30;;;27.33;;
37641;SDS011;23486;51.956;5.888;2022-11-14T04:02:05;56.88;;;28.70;;
37641;SDS011;23486;51.956;5.888;2022-11-14T04:04:30;50.33;;;25.95;;
37641;SDS011;23486;51.956;5.888;2022-11-14T04:06:56;53.42;;;26.98;;
37641;SDS011;23486;51.956;5.888;2022-11-14T04:09:22;53.28;;;24.88;;
37641;SDS011;23486;51.956;5.888;2022-11-14T04:11:47;46.63;;;23.17;;
37641;SDS011;23486;51.956;5.888;2022-11-14T04:14:13;54.13;;;24.95;;
37641;SDS011;23486;51.956;5.888;2022-11-14T04:16:38;43.80;;;21.27;;
37641;SDS011;23486;51.956;5.888;2022-11-14T04:19:07;55.65;;;27.40;;
37641;SDS011;23486;51.956;5.888;2022-11-14T04:21:32;54.35;;;28.00;;
37641;SDS011;23486;51.956;5.888;2022-11-14T04:23:58;55.83;;;27.40;;
37641;SDS011;23486;51.956;5.888;2022-11-14T04:26:23;53.65;;;27.63;;
37641;SDS011;23486;51.956;5.888;2022-11-14T04:28:49;58.22;;;27.85;;
37641;SDS011;23486;51.956;5.888;2022-11-14T04:31:14;61.40;;;27.88;;
37641;SDS011;23486;51.956;5.888;2022-11-14T04:33:40;53.20;;;25.83;;
37641;SDS011;23486;51.956;5.888;2022-11-14T04:36:06;59.10;;;25.90;;
37641;SDS011;23486;51.956;5.888;2022-11-14T04:38:31;50.10;;;24.67;;
37641;SDS011;23486;51.956;5.888;2022-11-14T04:40:57;56.10;;;26.25;;
37641;SDS011;23486;51.956;5.888;2022-11-14T04:43:22;54.95;;;26.70;;
37641;SDS011;23486;51.956;5.888;2022-11-14T04:45:48;57.70;;;27.85;;
37641;SDS011;23486;51.956;5.888;2022-11-14T04:48:14;54.95;;;26.25;;
37641;SDS011;23486;51.956;5.888;2022-11-14T04:50:39;52.42;;;24.77;;
37641;SDS011;23486;51.956;5.888;2022-11-14T04:53:05;61.40;;;27.40;;
37641;SDS011;23486;51.956;5.888;2022-11-14T04:55:30;63.45;;;28.55;;
37641;SDS011;23486;51.956;5.888;2022-11-14T04:57:56;53.85;;;25.85;;
37641;SDS011;23486;51.956;5.888;2022-11-14T05:00:22;48.42;;;23.33;;
37641;SDS011;23486;51.956;5.888;2022-11-14T05:02:49;45.70;;;24.60;;
37641;SDS011;23486;51.956;5.888;2022-11-14T05:05:14;49.20;;;24.58;;
37641;SDS011;23486;51.956;5.888;2022-11-14T05:07:40;45.45;;;22.60;;
37641;SDS011;23486;51.956;5.888;2022-11-14T05:10:08;46.08;;;22.20;;
37641;SDS011;23486;51.956;5.888;2022-11-14T05:12:34;51.33;;;23.50;;
37641;SDS011;23486;51.956;5.888;2022-11-14T05:15:00;46.67;;;22.67;;
37641;SDS011;23486;51.956;5.888;2022-11-14T05:17:26;44.45;;;21.55;;
37641;SDS011;23486;51.956;5.888;2022-11-14T05:19:52;46.35;;;21.60;;
37641;SDS011;23486;51.956;5.888;2022-11-14T05:22:18;46.45;;;22.50;;
37641;SDS011;23486;51.956;5.888;2022-11-14T05:24:43;48.35;;;22.25;;
37641;SDS011;23486;51.956;5.888;2022-11-14T05:27:09;39.60;;;21.52;;
37641;SDS011;23486;51.956;5.888;2022-11-14T05:29:34;48.67;;;24.77;;
37641;SDS011;23486;51.956;5.888;2022-11-14T05:32:00;53.55;;;25.58;;
37641;SDS011;23486;51.956;5.888;2022-11-14T05:34:28;49.03;;;22.52;;
37641;SDS011;23486;51.956;5.888;2022-11-14T05:36:54;42.47;;;21.58;;
37641;SDS011;23486;51.956;5.888;2022-11-14T05:39:19;45.17;;;22.02;;
37641;SDS011;23486;51.956;5.888;2022-11-14T05:41:45;40.65;;;21.27;;
37641;SDS011;23486;51.956;5.888;2022-11-14T05:44:10;42.10;;;22.38;;
37641;SDS011;23486;51.956;5.888;2022-11-14T05:46:36;49.83;;;24.17;;
37641;SDS011;23486;51.956;5.888;2022-11-14T05:49:02;46.58;;;23.25;;
37641;SDS011;23486;51.956;5.888;2022-11-14T05:51:27;45.10;;;21.42;;
37641;SDS011;23486;51.956;5.888;2022-11-14T05:53:53;43.55;;;22.75;;
37641;SDS011;23486;51.956;5.888;2022-11-14T05:56:19;41.40;;;21.55;;
37641;SDS011;23486;51.956;5.888;2022-11-14T05:58:45;44.95;;;20.90;;
37641;SDS011;23486;51.956;5.888;2022-11-14T06:01:12;44.75;;;22.27;;
37641;SDS011;23486;51.956;5.888;2022-11-14T06:03:40;46.03;;;20.98;;
37641;SDS011;23486;51.956;5.888;2022-11-14T06:06:11;42.60;;;21.20;;
37641;SDS011;23486;51.956;5.888;2022-11-14T06:08:38;40.92;;;21.08;;
37641;SDS011;23486;51.956;5.888;2022-11-14T06:11:05;46.50;;;22.75;;
37641;SDS011;23486;51.956;5.888;2022-11-14T06:13:35;49.83;;;25.38;;
37641;SDS011;23486;51.956;5.888;2022-11-14T06:16:01;46.80;;;23.10;;
37641;SDS011;23486;51.956;5.888;2022-11-14T06:18:29;52.42;;;22.67;;
37641;SDS011;23486;51.956;5.888;2022-11-14T06:20:58;43.90;;;21.45;;
37641;SDS011;23486;51.956;5.888;2022-11-14T06:23:24;48.90;;;24.02;;
37641;SDS011;23486;51.956;5.888;2022-11-14T06:25:50;50.65;;;24.38;;
37641;SDS011;23486;51.956;5.888;2022-11-14T06:28:28;41.92;;;20.33;;
37641;SDS011;23486;51.956;5.888;2022-11-14T06:30:58;42.78;;;20.52;;
37641;SDS011;23486;51.956;5.888;2022-11-14T06:33:25;45.30;;;21.23;;
37641;SDS011;23486;51.956;5.888;2022-11-14T06:35:57;42.58;;;20.10;;
37641;SDS011;23486;51.956;5.888;2022-11-14T06:38:24;45.80;;;22.08;;
37641;SDS011;23486;51.956;5.888;2022-11-14T06:40:59;43.75;;;22.13;;
37641;SDS011;23486;51.956;5.888;2022-11-14T06:43:39;43.75;;;21.95;;
37641;SDS011;23486;51.956;5.888;2022-11-14T06:46:07;51.50;;;23.35;;
37641;SDS011;23486;51.956;5.888;2022-11-14T06:48:37;47.15;;;21.70;;
37641;SDS011;23486;51.956;5.888;2022-11-14T06:51:03;41.08;;;22.10;;
37641;SDS011;23486;51.956;5.888;2022-11-14T06:53:30;45.40;;;21.20;;
37641;SDS011;23486;51.956;5.888;2022-11-14T06:56:06;50.97;;;24.10;;
37641;SDS011;23486;51.956;5.888;2022-11-14T06:58:38;49.08;;;23.08;;
37641;SDS011;23486;51.956;5.888;2022-11-14T07:03:38;47.90;;;21.67;;
37641;SDS011;23486;51.956;5.888;2022-11-14T07:06:04;51.47;;;23.92;;
37641;SDS011;23486;51.956;5.888;2022-11-14T07:08:30;43.95;;;21.45;;
37641;SDS011;23486;51.956;5.888;2022-11-14T07:11:00;42.22;;;21.02;;
37641;SDS011;23486;51.956;5.888;2022-11-14T07:13:32;46.33;;;22.33;;
37641;SDS011;23486;51.956;5.888;2022-11-14T07:16:02;42.33;;;20.98;;
37641;SDS011;23486;51.956;5.888;2022-11-14T07:18:28;39.25;;;19.85;;
37641;SDS011;23486;51.956;5.888;2022-11-14T07:21:02;38.47;;;19.08;;
37641;SDS011;23486;51.956;5.888;2022-11-14T07:23:32;47.55;;;23.60;;
37641;SDS011;23486;51.956;5.888;2022-11-14T07:26:01;45.80;;;23.15;;
37641;SDS011;23486;51.956;5.888;2022-11-14T07:28:31;48.40;;;22.08;;
37641;SDS011;23486;51.956;5.888;2022-11-14T07:30:58;45.67;;;23.05;;
37641;SDS011;23486;51.956;5.888;2022-11-14T07:33:26;46.70;;;21.92;;
37641;SDS011;23486;51.956;5.888;2022-11-14T07:35:51;40.22;;;19.75;;
37641;SDS011;23486;51.956;5.888;2022-11-14T07:38:17;37.40;;;19.55;;
37641;SDS011;23486;51.956;5.888;2022-11-14T07:40:51;38.45;;;19.20;;
37641;SDS011;23486;51.956;5.888;2022-11-14T07:43:20;40.42;;;20.33;;
37641;SDS011;23486;51.956;5.888;2022-11-14T07:45:46;39.58;;;19.17;;
37641;SDS011;23486;51.956;5.888;2022-11-14T07:48:12;44.10;;;20.65;;
37641;SDS011;23486;51.956;5.888;2022-11-14T07:50:38;44.00;;;22.45;;
37641;SDS011;23486;51.956;5.888;2022-11-14T07:53:03;42.55;;;21.25;;
37641;SDS011;23486;51.956;5.888;2022-11-14T07:55:29;42.55;;;20.77;;
37641;SDS011;23486;51.956;5.888;2022-11-14T07:57:58;43.33;;;21.15;;
37641;SDS011;23486;51.956;5.888;2022-11-14T08:00:23;42.55;;;21.30;;
37641;SDS011;23486;51.956;5.888;2022-11-14T08:02:49;39.47;;;19.85;;
37641;SDS011;23486;51.956;5.888;2022-11-14T08:05:15;42.47;;;21.63;;
37641;SDS011;23486;51.956;5.888;2022-11-14T08:07:41;35.42;;;17.70;;
37641;SDS011;23486;51.956;5.888;2022-11-14T08:10:07;40.83;;;19.60;;
37641;SDS011;23486;51.956;5.888;2022-11-14T08:12:33;43.97;;;22.10;;
37641;SDS011;23486;51.956;5.888;2022-11-14T08:14:58;39.65;;;20.48;;
37641;SDS011;23486;51.956;5.888;2022-11-14T08:17:24;35.90;;;17.50;;
37641;SDS011;23486;51.956;5.888;2022-11-14T08:19:49;37.00;;;19.45;;
37641;SDS011;23486;51.956;5.888;2022-11-14T08:22:15;36.03;;;19.77;;
37641;SDS011;23486;51.956;5.888;2022-11-14T08:24:40;38.95;;;20.80;;
37641;SDS011;23486;51.956;5.888;2022-11-14T08:27:06;38.63;;;19.77;;
37641;SDS011;23486;51.956;5.888;2022-11-14T08:29:32;39.67;;;20.55;;
37641;SDS011;23486;51.956;5.888;2022-11-14T08:31:57;36.15;;;20.02;;
37641;SDS011;23486;51.956;5.888;2022-11-14T08:34:26;36.30;;;19.20;;
37641;SDS011;23486;51.956;5.888;2022-11-14T08:36:53;38.30;;;20.38;;
37641;SDS011;23486;51.956;5.888;2022-11-14T08:39:20;35.72;;;20.05;;
37641;SDS011;23486;51.956;5.888;2022-11-14T08:41:45;32.63;;;18.52;;
37641;SDS011;23486;51.956;5.888;2022-11-14T08:44:11;36.53;;;19.30;;
37641;SDS011;23486;51.956;5.888;2022-11-14T08:46:36;44.30;;;24.05;;
37641;SDS011;23486;51.956;5.888;2022-11-14T08:49:02;39.40;;;20.38;;
37641;SDS011;23486;51.956;5.888;2022-11-14T08:51:30;38.22;;;20.05;;
37641;SDS011;23486;51.956;5.888;2022-11-14T08:53:56;37.53;;;19.27;;
37641;SDS011;23486;51.956;5.888;2022-11-14T08:56:21;35.70;;;20.15;;
37641;SDS011;23486;51.956;5.888;2022-11-14T08:58:47;34.88;;;17.70;;
37641;SDS011;23486;51.956;5.888;2022-11-14T09:01:15;38.50;;;20.83;;
37641;SDS011;23486;51.956;5.888;2022-11-14T09:03:41;38.35;;;20.48;;
37641;SDS011;23486;51.956;5.888;2022-11-14T09:06:06;35.45;;;19.17;;
37641;SDS011;23486;51.956;5.888;2022-11-14T09:08:32;34.33;;;18.83;;
37641;SDS011;23486;51.956;5.888;2022-11-14T09:11:00;36.67;;;19.85;;
37641;SDS011;23486;51.956;5.888;2022-11-14T09:13:33;35.72;;;18.25;;
37641;SDS011;23486;51.956;5.888;2022-11-14T09:15:59;33.42;;;18.35;;
37641;SDS011;23486;51.956;5.888;2022-11-14T09:18:25;31.10;;;17.92;;
37641;SDS011;23486;51.956;5.888;2022-11-14T09:20:51;30.33;;;16.67;;
37641;SDS011;23486;51.956;5.888;2022-11-14T09:23:16;39.00;;;21.08;;
37641;SDS011;23486;51.956;5.888;2022-11-14T09:25:42;33.53;;;19.05;;
37641;SDS011;23486;51.956;5.888;2022-11-14T09:28:08;34.10;;;18.63;;
37641;SDS011;23486;51.956;5.888;2022-11-14T09:30:34;38.13;;;20.88;;
37641;SDS011;23486;51.956;5.888;2022-11-14T09:33:01;37.50;;;18.77;;
37641;SDS011;23486;51.956;5.888;2022-11-14T09:35:29;37.70;;;19.33;;
37641;SDS011;23486;51.956;5.888;2022-11-14T09:37:59;31.65;;;18.20;;
37641;SDS011;23486;51.956;5.888;2022-11-14T09:43:12;30.88;;;17.60;;
37641;SDS011;23486;51.956;5.888;2022-11-14T09:45:59;32.25;;;17.23;;
37641;SDS011;23486;51.956;5.888;2022-11-14T09:48:27;29.95;;;17.25;;
37641;SDS011;23486;51.956;5.888;2022-11-14T09:53:38;28.77;;;17.35;;
37641;SDS011;23486;51.956;5.888;2022-11-14T09:56:12;32.72;;;18.42;;
37641;SDS011;23486;51.956;5.888;2022-11-14T09:58:43;30.50;;;17.05;;
37641;SDS011;23486;51.956;5.888;2022-11-14T10:04:03;32.22;;;18.98;;
37641;SDS011;23486;51.956;5.888;2022-11-14T10:15:22;29.92;;;18.10;;
37641;SDS011;23486;51.956;5.888;2022-11-14T10:18:01;29.65;;;16.38;;
37641;SDS011;23486;51.956;5.888;2022-11-14T10:21:20;27.02;;;16.80;;
37641;SDS011;23486;51.956;5.888;2022-11-14T10:24:12;34.53;;;18.25;;
37641;SDS011;23486;51.956;5.888;2022-11-14T10:27:04;31.15;;;17.88;;
37641;SDS011;23486;51.956;5.888;2022-11-14T10:35:29;29.27;;;16.05;;
37641;SDS011;23486;51.956;5.888;2022-11-14T10:38:15;25.85;;;15.98;;
37641;SDS011;23486;51.956;5.888;2022-11-14T10:40:49;24.25;;;15.50;;
37641;SDS011;23486;51.956;5.888;2022-11-14T10:46:00;24.60;;;16.00;;
37641;SDS011;23486;51.956;5.888;2022-11-14T10:48:33;26.13;;;15.45;;
37641;SDS011;23486;51.956;5.888;2022-11-14T10:53:55;26.67;;;16.08;;
37641;SDS011;23486;51.956;5.888;2022-11-14T10:56:31;24.88;;;15.90;;
37641;SDS011;23486;51.956;5.888;2022-11-14T10:58:56;24.98;;;14.73;;
37641;SDS011;23486;51.956;5.888;2022-11-14T11:01:39;26.90;;;15.30;;
37641;SDS011;23486;51.956;5.888;2022-11-14T11:09:33;24.77;;;14.35;;
37641;SDS011;23486;51.956;5.888;2022-11-14T11:12:21;24.98;;;14.98;;
37641;SDS011;23486;51.956;5.888;2022-11-14T11:14:48;23.95;;;15.23;;
37641;SDS011;23486;51.956;5.888;2022-11-14T11:17:32;23.08;;;15.25;;
37641;SDS011;23486;51.956;5.888;2022-11-14T11:20:19;26.40;;;15.90;;
37641;SDS011;23486;51.956;5.888;2022-11-14T11:22:49;26.80;;;16.35;;
37641;SDS011;23486;51.956;5.888;2022-11-14T11:25:30;26.85;;;17.02;;
37641;SDS011;23486;51.956;5.888;2022-11-14T11:28:04;25.13;;;16.17;;
37641;SDS011;23486;51.956;5.888;2022-11-14T11:30:34;25.25;;;15.65;;
37641;SDS011;23486;51.956;5.888;2022-11-14T11:33:21;27.38;;;16.80;;
37641;SDS011;23486;51.956;5.888;2022-11-14T11:35:49;25.98;;;15.23;;
37641;SDS011;23486;51.956;5.888;2022-11-14T11:38:16;30.10;;;17.88;;
37641;SDS011;23486;51.956;5.888;2022-11-14T11:40:44;28.00;;;16.55;;
37641;SDS011;23486;51.956;5.888;2022-11-14T11:43:15;32.58;;;18.67;;
37641;SDS011;23486;51.956;5.888;2022-11-14T11:46:00;27.48;;;18.42;;
37641;SDS011;23486;51.956;5.888;2022-11-14T11:48:33;29.60;;;19.05;;
37641;SDS011;23486;51.956;5.888;2022-11-14T11:51:02;32.05;;;21.38;;
37641;SDS011;23486;51.956;5.888;2022-11-14T11:53:37;30.10;;;20.52;;
37641;SDS011;23486;51.956;5.888;2022-11-14T11:56:18;30.42;;;18.55;;
37641;SDS011;23486;51.956;5.888;2022-11-14T11:58:56;29.38;;;18.58;;
37641;SDS011;23486;51.956;5.888;2022-11-14T12:01:29;30.00;;;19.23;;
37641;SDS011;23486;51.956;5.888;2022-11-14T12:03:55;32.03;;;20.05;;
37641;SDS011;23486;51.956;5.888;2022-11-14T12:06:21;32.83;;;21.23;;
37641;SDS011;23486;51.956;5.888;2022-11-14T12:12:00;33.88;;;21.20;;
37641;SDS011;23486;51.956;5.888;2022-11-14T12:17:26;31.45;;;20.50;;
37641;SDS011;23486;51.956;5.888;2022-11-14T12:20:35;31.85;;;20.33;;
37641;SDS011;23486;51.956;5.888;2022-11-14T12:29:34;29.70;;;20.60;;
37641;SDS011;23486;51.956;5.888;2022-11-14T12:32:27;36.63;;;22.33;;
37641;SDS011;23486;51.956;5.888;2022-11-14T12:34:56;36.13;;;22.63;;
37641;SDS011;23486;51.956;5.888;2022-11-14T12:40:07;33.90;;;22.83;;
37641;SDS011;23486;51.956;5.888;2022-11-14T12:42:48;33.80;;;22.63;;
37641;SDS011;23486;51.956;5.888;2022-11-14T12:50:53;33.13;;;20.98;;
37641;SDS011;23486;51.956;5.888;2022-11-14T12:56:23;31.20;;;19.17;;
37641;SDS011;23486;51.956;5.888;2022-11-14T13:06:48;26.38;;;16.50;;
37641;SDS011;23486;51.956;5.888;2022-11-14T13:11:48;23.98;;;14.48;;
37641;SDS011;23486;51.956;5.888;2022-11-14T13:14:50;23.40;;;14.57;;
37641;SDS011;23486;51.956;5.888;2022-11-14T13:17:36;25.17;;;14.45;;
37641;SDS011;23486;51.956;5.888;2022-11-14T13:25:30;23.77;;;14.38;;
37641;SDS011;23486;51.956;5.888;2022-11-14T13:28:18;22.73;;;13.18;;
37641;SDS011;23486;51.956;5.888;2022-11-14T13:33:39;23.63;;;13.82;;
37641;SDS011;23486;51.956;5.888;2022-11-14T13:36:07;25.42;;;14.20;;
37641;SDS011;23486;51.956;5.888;2022-11-14T13:52:18;26.23;;;14.48;;
37641;SDS011;23486;51.956;5.888;2022-11-14T13:54:45;22.50;;;13.75;;
37641;SDS011;23486;51.956;5.888;2022-11-14T13:57:30;24.50;;;15.05;;
37641;SDS011;23486;51.956;5.888;2022-11-14T14:00:16;22.08;;;12.95;;
37641;SDS011;23486;51.956;5.888;2022-11-14T14:13:50;20.73;;;12.27;;
37641;SDS011;23486;51.956;5.888;2022-11-14T14:18:54;21.27;;;13.13;;
37641;SDS011;23486;51.956;5.888;2022-11-14T14:21:29;22.50;;;13.10;;
37641;SDS011;23486;51.956;5.888;2022-11-14T14:24:25;19.73;;;12.00;;
37641;SDS011;23486;51.956;5.888;2022-11-14T14:29:28;21.00;;;13.48;;
37641;SDS011;23486;51.956;5.888;2022-11-14T14:32:22;22.67;;;14.13;;
37641;SDS011;23486;51.956;5.888;2022-11-14T14:34:48;20.52;;;12.52;;
37641;SDS011;23486;51.956;5.888;2022-11-14T14:37:17;23.85;;;14.68;;
37641;SDS011;23486;51.956;5.888;2022-11-14T14:42:23;20.02;;;12.20;;
37641;SDS011;23486;51.956;5.888;2022-11-14T14:44:50;22.40;;;12.05;;
37641;SDS011;23486;51.956;5.888;2022-11-14T14:49:57;20.90;;;12.98;;
37641;SDS011;23486;51.956;5.888;2022-11-14T14:55:03;21.00;;;13.38;;
37641;SDS011;23486;51.956;5.888;2022-11-14T14:57:32;20.73;;;13.07;;
37641;SDS011;23486;51.956;5.888;2022-11-14T15:00:06;24.55;;;14.48;;
37641;SDS011;23486;51.956;5.888;2022-11-14T15:02:40;21.10;;;13.05;;
37641;SDS011;23486;51.956;5.888;2022-11-14T15:05:07;23.17;;;13.98;;
37641;SDS011;23486;51.956;5.888;2022-11-14T15:07:33;19.58;;;13.38;;
37641;SDS011;23486;51.956;5.888;2022-11-14T15:10:03;20.25;;;12.73;;
37641;SDS011;23486;51.956;5.888;2022-11-14T15:12:46;20.13;;;13.20;;
37641;SDS011;23486;51.956;5.888;2022-11-14T15:15:14;22.05;;;13.02;;
37641;SDS011;23486;51.956;5.888;2022-11-14T15:17:40;19.17;;;12.10;;
37641;SDS011;23486;51.956;5.888;2022-11-14T15:20:19;21.05;;;12.80;;
37641;SDS011;23486;51.956;5.888;2022-11-14T15:25:38;22.40;;;13.15;;
37641;SDS011;23486;51.956;5.888;2022-11-14T15:28:11;18.77;;;12.77;;
37641;SDS011;23486;51.956;5.888;2022-11-14T15:30:53;21.77;;;12.52;;
37641;SDS011;23486;51.956;5.888;2022-11-14T15:33:33;21.52;;;12.85;;
37641;SDS011;23486;51.956;5.888;2022-11-14T15:38:33;16.75;;;10.85;;
37641;SDS011;23486;51.956;5.888;2022-11-14T15:43:55;18.27;;;11.38;;
37641;SDS011;23486;51.956;5.888;2022-11-14T15:48:57;20.52;;;10.63;;
37641;SDS011;23486;51.956;5.888;2022-11-14T15:51:36;19.48;;;11.18;;
37641;SDS011;23486;51.956;5.888;2022-11-14T15:54:29;18.55;;;10.98;;
37641;SDS011;23486;51.956;5.888;2022-11-14T15:57:13;17.88;;;10.90;;
37641;SDS011;23486;51.956;5.888;2022-11-14T15:59:40;18.85;;;11.60;;
37641;SDS011;23486;51.956;5.888;2022-11-14T16:02:16;20.08;;;12.60;;
37641;SDS011;23486;51.956;5.888;2022-11-14T16:04:53;19.08;;;11.57;;
37641;SDS011;23486;51.956;5.888;2022-11-14T16:07:20;20.85;;;12.20;;
37641;SDS011;23486;51.956;5.888;2022-11-14T16:09:46;20.85;;;13.70;;
37641;SDS011;23486;51.956;5.888;2022-11-14T16:12:12;18.02;;;12.35;;
37641;SDS011;23486;51.956;5.888;2022-11-14T16:14:37;19.83;;;13.07;;
37641;SDS011;23486;51.956;5.888;2022-11-14T16:17:03;18.63;;;13.77;;
37641;SDS011;23486;51.956;5.888;2022-11-14T16:19:29;22.48;;;14.55;;
37641;SDS011;23486;51.956;5.888;2022-11-14T16:21:59;22.20;;;13.68;;
37641;SDS011;23486;51.956;5.888;2022-11-14T16:24:27;21.63;;;14.57;;
37641;SDS011;23486;51.956;5.888;2022-11-14T16:26:53;21.13;;;13.15;;
37641;SDS011;23486;51.956;5.888;2022-11-14T16:29:19;24.23;;;15.43;;
37641;SDS011;23486;51.956;5.888;2022-11-14T16:31:44;22.23;;;15.02;;
37641;SDS011;23486;51.956;5.888;2022-11-14T16:34:15;22.77;;;15.02;;
37641;SDS011;23486;51.956;5.888;2022-11-14T16:36:43;21.30;;;14.23;;
37641;SDS011;23486;51.956;5.888;2022-11-14T16:39:10;22.20;;;15.27;;
37641;SDS011;23486;51.956;5.888;2022-11-14T16:41:37;22.17;;;13.35;;